Time;durP1;ratioP1;P1;durP2;ratioP2;P2;SDS_P1;SDS_P2;PMS_P1;PMS_P2;Temp;Humidity;BMP_temperature;BMP_pressure;BME280_temperature;BME280_humidity;BME280_pressure;Samples;Min_cycle;Max_cycle;Signal;HPM_P1;HPM_P2
2022/01/08 00:01:25;;;;;;;2.30;1.17;;;17.80;56.60;;;;;;4972703;28;20479;-51
2022/01/08 00:03:51;;;;;;;2.88;1.27;;;17.80;56.50;;;;;;4971777;28;20049;-54
2022/01/08 00:06:17;;;;;;;2.00;1.10;;;17.90;56.40;;;;;;4971890;28;20034;-52
2022/01/08 00:08:42;;;;;;;4.90;1.20;;;17.80;56.50;;;;;;4968201;28;20046;-54
2022/01/08 00:11:10;;;;;;;2.08;1.30;;;17.80;56.70;;;;;;4982522;28;20018;-50
2022/01/08 00:13:37;;;;;;;2.50;0.80;;;17.80;56.70;;;;;;4973542;28;20026;-50
2022/01/08 00:16:03;;;;;;;2.67;1.08;;;17.80;56.70;;;;;;4974781;28;20041;-54
2022/01/08 00:18:28;;;;;;;1.20;0.80;;;17.80;56.70;;;;;;4975965;28;20026;-50
2022/01/08 00:20:54;;;;;;;1.40;0.95;;;17.80;56.60;;;;;;4971341;28;20636;-50
2022/01/08 00:23:19;;;;;;;1.95;1.15;;;17.80;56.50;;;;;;4976285;28;20547;-53
2022/01/08 00:25:45;;;;;;;1.52;1.33;;;17.80;56.50;;;;;;4978772;28;20555;-55
2022/01/08 00:28:10;;;;;;;1.00;0.90;;;17.70;56.60;;;;;;4977441;28;20030;-50
2022/01/08 00:30:36;;;;;;;1.55;0.73;;;17.70;56.70;;;;;;4979966;28;20563;-51
2022/01/08 00:33:01;;;;;;;1.55;0.70;;;17.70;56.80;;;;;;4969211;28;20108;-53
2022/01/08 00:35:27;;;;;;;1.67;1.00;;;17.70;56.80;;;;;;4982253;28;20027;-50
2022/01/08 00:37:53;;;;;;;2.10;1.00;;;17.70;57.50;;;;;;4955648;28;20042;-50
2022/01/08 00:40:18;;;;;;;1.38;0.73;;;17.70;56.90;;;;;;4988171;28;20146;-51
2022/01/08 00:42:44;;;;;;;1.27;1.00;;;17.70;56.90;;;;;;4964384;28;20055;-51
2022/01/08 00:45:10;;;;;;;2.22;0.80;;;17.70;56.90;;;;;;4964999;28;20073;-54
2022/01/08 00:47:36;;;;;;;3.05;0.88;;;17.70;56.80;;;;;;4967652;28;20411;-52
2022/01/08 00:50:03;;;;;;;1.75;0.75;;;17.70;56.90;;;;;;4977645;22;20093;-68
2022/01/08 00:52:28;;;;;;;1.20;0.77;;;17.70;57.50;;;;;;4979768;28;20011;-68
2022/01/08 00:54:54;;;;;;;2.25;0.52;;;17.70;56.90;;;;;;4982364;28;20038;-69
2022/01/08 00:57:19;;;;;;;0.73;0.70;;;17.70;57.50;;;;;;4985307;28;20034;-68
2022/01/08 00:59:45;;;;;;;1.27;0.95;;;17.70;56.90;;;;;;4988801;28;20447;-68
2022/01/08 01:02:10;;;;;;;1.20;0.70;;;17.70;56.90;;;;;;5007064;28;20038;-69
2022/01/08 01:04:36;;;;;;;0.93;0.80;;;17.70;56.90;;;;;;5009934;28;20034;-68
2022/01/08 01:07:02;;;;;;;0.75;0.63;;;17.70;56.90;;;;;;5003465;28;20069;-68
2022/01/08 01:09:27;;;;;;;1.00;0.68;;;17.70;56.90;;;;;;4995863;28;20080;-68
2022/01/08 01:11:56;;;;;;;1.30;0.80;;;17.70;56.90;;;;;;5003811;28;20110;-68
2022/01/08 01:14:23;;;;;;;1.52;0.75;;;17.70;56.90;;;;;;4997306;28;20025;-68
2022/01/08 01:16:48;;;;;;;0.98;0.70;;;17.70;56.90;;;;;;4996867;28;20046;-67
2022/01/08 01:19:14;;;;;;;0.80;0.65;;;17.70;56.90;;;;;;5003534;28;20025;-65
2022/01/08 01:21:39;;;;;;;0.82;0.60;;;17.70;56.90;;;;;;4992081;28;20489;-68
2022/01/08 01:24:11;;;;;;;2.15;1.50;;;17.70;56.90;;;;;;4992398;28;20018;-68
2022/01/08 01:26:42;;;;;;;1.58;1.40;;;17.70;56.80;;;;;;5005584;28;20034;-68
2022/01/08 01:29:35;;;;;;;1.48;0.80;;;17.70;56.80;;;;;;5000485;28;20574;-68
2022/01/08 01:48:24;;;;;;;1.40;0.70;;;17.70;56.80;;;;;;4996747;28;20076;-69
2022/01/08 01:50:50;;;;;;;1.75;0.68;;;17.70;56.80;;;;;;5008515;28;20034;-68
2022/01/08 01:53:15;;;;;;;1.45;0.95;;;17.70;56.90;;;;;;4993285;28;20038;-69
2022/01/08 01:55:41;;;;;;;0.95;0.52;;;17.70;56.80;;;;;;4998047;28;20030;-69
2022/01/08 01:58:07;;;;;;;1.17;0.75;;;17.70;56.80;;;;;;4999430;28;20030;-69
2022/01/08 02:00:33;;;;;;;0.93;0.70;;;17.70;56.80;;;;;;4990447;28;20035;-69
2022/01/08 02:02:59;;;;;;;0.75;0.50;;;17.70;56.80;;;;;;5006682;28;20033;-68
2022/01/08 02:05:25;;;;;;;1.40;0.70;;;17.70;56.60;;;;;;5005245;28;20029;-68
2022/01/08 02:07:50;;;;;;;0.73;0.70;;;17.70;56.60;;;;;;5001299;28;20022;-69
2022/01/08 02:10:16;;;;;;;1.05;0.70;;;17.70;56.60;;;;;;5005644;28;20069;-69
2022/01/08 02:12:41;;;;;;;0.82;0.60;;;17.70;56.50;;;;;;5006194;28;20034;-68
2022/01/08 02:15:07;;;;;;;1.95;0.70;;;17.60;56.40;;;;;;4995424;28;20058;-69
2022/01/08 02:17:32;;;;;;;0.90;0.70;;;17.60;56.40;;;;;;5004040;28;20038;-69
2022/01/08 02:19:58;;;;;;;1.33;0.70;;;17.60;56.40;;;;;;5007564;28;20045;-69
2022/01/08 02:22:23;;;;;;;0.88;0.75;;;17.60;56.30;;;;;;5004565;28;20034;-69
2022/01/08 02:24:49;;;;;;;1.13;0.60;;;17.60;56.30;;;;;;4992380;28;20029;-68
2022/01/08 02:27:15;;;;;;;0.70;0.57;;;17.60;56.90;;;;;;5000835;28;20737;-68
2022/01/08 02:29:41;;;;;;;1.45;0.60;;;17.50;56.20;;;;;;5007789;28;20030;-69
2022/01/08 02:32:15;;;;;;;1.00;0.60;;;17.50;56.20;;;;;;4994241;28;20041;-68
2022/01/08 02:34:41;;;;;;;0.80;0.75;;;17.50;56.20;;;;;;4999569;28;20033;-68
2022/01/08 02:37:06;;;;;;;0.70;0.50;;;17.50;56.30;;;;;;4999381;28;20023;-68
2022/01/08 02:39:38;;;;;;;0.90;0.60;;;17.40;56.30;;;;;;5000895;28;20041;-68
2022/01/08 02:42:03;;;;;;;1.65;0.73;;;17.40;56.30;;;;;;4994466;28;20034;-69
2022/01/08 02:44:29;;;;;;;0.65;0.60;;;17.40;56.20;;;;;;4991524;28;20030;-69
2022/01/08 02:46:54;;;;;;;0.90;0.70;;;17.50;56.20;;;;;;4990800;28;20525;-69
2022/01/08 02:49:21;;;;;;;0.47;0.40;;;17.40;56.10;;;;;;5003338;28;20042;-70
2022/01/08 02:51:47;;;;;;;0.52;0.40;;;17.50;56.10;;;;;;4995112;28;20117;-68
2022/01/08 02:54:13;;;;;;;1.23;0.73;;;17.40;56.00;;;;;;5000961;28;20106;-67
2022/01/08 02:56:39;;;;;;;0.60;0.60;;;17.50;56.10;;;;;;4991842;28;20037;-68
2022/01/08 02:59:05;;;;;;;1.30;0.90;;;17.40;56.00;;;;;;5001312;28;20034;-68
2022/01/08 03:01:30;;;;;;;0.85;0.50;;;17.40;56.00;;;;;;5001190;28;20033;-69
2022/01/08 03:03:57;;;;;;;0.70;0.60;;;17.40;55.90;;;;;;4999040;28;20038;-69
2022/01/08 03:06:23;;;;;;;0.82;0.70;;;17.40;56.00;;;;;;5007226;28;20397;-69
2022/01/08 03:08:48;;;;;;;1.20;0.80;;;17.40;56.00;;;;;;5002037;28;20039;-68
2022/01/08 03:11:14;;;;;;;1.20;0.65;;;17.40;56.00;;;;;;4989219;28;20038;-68
2022/01/08 03:13:39;;;;;;;0.50;0.50;;;17.40;55.90;;;;;;4994257;28;20049;-68
2022/01/08 03:16:05;;;;;;;0.80;0.73;;;17.40;55.90;;;;;;4993997;28;20026;-69
2022/01/08 03:18:30;;;;;;;0.65;0.50;;;17.40;55.90;;;;;;5004973;28;20076;-68
2022/01/08 03:21:11;;;;;;;0.82;0.60;;;17.40;55.90;;;;;;5001202;28;20072;-68
2022/01/08 03:23:43;;;;;;;0.60;0.50;;;17.40;56.00;;;;;;4989020;28;20117;-68
2022/01/08 03:26:09;;;;;;;0.60;0.50;;;17.40;55.90;;;;;;5000950;28;20026;-67
2022/01/08 03:28:35;;;;;;;0.77;0.57;;;17.40;55.90;;;;;;4991484;28;20018;-68
2022/01/08 03:31:00;;;;;;;0.32;0.32;;;17.40;55.90;;;;;;4990680;28;20069;-68
2022/01/08 03:33:25;;;;;;;0.77;0.57;;;17.40;56.50;;;;;;4992434;28;20030;-68
2022/01/08 03:35:51;;;;;;;0.73;0.60;;;17.30;55.90;;;;;;4991159;28;20445;-68
2022/01/08 03:38:16;;;;;;;0.63;0.47;;;17.30;55.90;;;;;;4986560;28;20022;-69
2022/01/08 03:40:42;;;;;;;1.75;1.00;;;17.30;55.90;;;;;;5001291;28;20019;-68
2022/01/08 03:43:07;;;;;;;0.50;0.50;;;17.30;55.90;;;;;;4988035;28;20031;-68
2022/01/08 03:45:33;;;;;;;1.85;0.63;;;17.30;55.90;;;;;;5003370;28;20625;-68
2022/01/08 03:50:43;;;;;;;0.80;0.55;;;17.30;55.90;;;;;;5000447;28;20540;-68
2022/01/08 03:53:08;;;;;;;0.88;0.40;;;17.30;56.00;;;;;;5004031;28;20039;-69
2022/01/08 03:55:34;;;;;;;0.50;0.50;;;17.20;55.90;;;;;;4993519;28;20037;-68
2022/01/08 03:57:59;;;;;;;0.63;0.55;;;17.20;56.00;;;;;;5010441;28;20333;-68
2022/01/08 04:00:25;;;;;;;0.63;0.50;;;17.20;55.90;;;;;;4997675;28;20026;-68
2022/01/08 04:02:52;;;;;;;0.65;0.50;;;17.20;55.90;;;;;;4995923;28;20081;-69
2022/01/08 04:05:17;;;;;;;0.70;0.55;;;17.20;55.90;;;;;;5000418;28;20048;-67
2022/01/08 04:07:43;;;;;;;0.55;0.47;;;17.20;55.90;;;;;;5011091;28;20034;-68
2022/01/08 04:10:08;;;;;;;0.80;0.52;;;17.20;55.90;;;;;;5006118;28;20041;-69
2022/01/08 04:12:40;;;;;;;1.55;0.50;;;17.20;55.80;;;;;;5007149;28;20038;-68
2022/01/08 04:15:19;;;;;;;1.15;0.57;;;17.20;55.80;;;;;;5002704;28;20033;-68
2022/01/08 04:17:45;;;;;;;0.68;0.47;;;17.20;55.80;;;;;;5002850;28;20030;-68
2022/01/08 04:20:11;;;;;;;1.77;0.57;;;17.20;55.60;;;;;;5000602;28;20030;-68
2022/01/08 04:22:36;;;;;;;0.73;0.57;;;17.30;55.50;;;;;;5000134;28;20037;-68
2022/01/08 04:25:02;;;;;;;0.60;0.50;;;17.40;55.30;;;;;;5010542;28;20411;-68
2022/01/08 04:27:27;;;;;;;0.40;0.38;;;17.50;55.00;;;;;;5000919;28;20022;-69
2022/01/08 04:29:53;;;;;;;0.60;0.40;;;17.60;54.90;;;;;;5006254;28;20065;-68
2022/01/08 04:32:18;;;;;;;0.70;0.50;;;17.60;54.90;;;;;;5000420;28;20030;-69
2022/01/08 04:34:44;;;;;;;0.63;0.43;;;17.60;54.80;;;;;;5003836;28;20083;-67
2022/01/08 04:37:09;;;;;;;1.05;0.43;;;17.60;54.70;;;;;;5013283;28;20022;-67
2022/01/08 04:39:35;;;;;;;1.00;0.50;;;17.70;54.70;;;;;;4997784;28;20061;-68
2022/01/08 04:42:00;;;;;;;0.52;0.50;;;17.70;54.70;;;;;;5003751;28;20029;-68
2022/01/08 04:44:26;;;;;;;0.82;0.40;;;17.70;54.60;;;;;;5009664;28;20038;-67
2022/01/08 04:46:51;;;;;;;0.80;0.77;;;17.70;54.60;;;;;;5008368;28;20035;-68
2022/01/08 04:49:16;;;;;;;1.15;0.57;;;17.80;54.60;;;;;;4999737;28;20038;-67
2022/01/08 04:51:42;;;;;;;0.85;0.50;;;17.80;54.60;;;;;;4994270;28;20524;-68
2022/01/08 04:54:07;;;;;;;0.30;0.30;;;17.80;54.60;;;;;;5000705;28;20030;-67
2022/01/08 04:56:33;;;;;;;0.70;0.50;;;17.80;54.60;;;;;;5003634;28;20037;-68
2022/01/08 04:58:58;;;;;;;0.63;0.50;;;17.80;54.70;;;;;;5001398;28;20030;-67
2022/01/08 05:01:24;;;;;;;0.50;0.50;;;17.80;54.70;;;;;;5008488;28;20718;-68
2022/01/08 05:03:50;;;;;;;0.60;0.50;;;17.80;54.70;;;;;;5005828;28;20074;-68
2022/01/08 05:06:16;;;;;;;0.77;0.40;;;17.80;54.80;;;;;;5000793;28;20084;-68
2022/01/08 05:08:41;;;;;;;0.73;0.70;;;17.80;54.80;;;;;;4995384;28;20026;-69
2022/01/08 05:11:07;;;;;;;0.57;0.35;;;17.80;54.90;;;;;;5000257;28;20030;-67
2022/01/08 05:13:32;;;;;;;0.75;0.52;;;17.80;54.80;;;;;;4994442;28;20026;-67
2022/01/08 05:15:59;;;;;;;1.25;0.60;;;17.80;54.80;;;;;;5010576;28;20193;-69
2022/01/08 05:18:25;;;;;;;0.43;0.40;;;17.80;54.70;;;;;;4988714;28;20469;-68
2022/01/08 05:21:06;;;;;;;0.57;0.30;;;17.80;54.70;;;;;;4999585;28;20030;-68
2022/01/08 05:23:31;;;;;;;1.02;0.50;;;17.80;54.60;;;;;;4994725;28;20575;-68
2022/01/08 05:25:57;;;;;;;0.68;0.50;;;17.80;54.50;;;;;;4988928;28;20038;-68
2022/01/08 05:28:22;;;;;;;0.88;0.50;;;17.80;54.40;;;;;;4985798;28;20029;-65
2022/01/08 05:30:48;;;;;;;0.60;0.40;;;17.90;54.40;;;;;;5000232;28;20417;-68
2022/01/08 05:33:13;;;;;;;0.70;0.40;;;17.90;54.40;;;;;;4993067;28;20031;-68
2022/01/08 05:35:39;;;;;;;0.35;0.35;;;17.90;54.20;;;;;;4993944;28;20076;-68
2022/01/08 05:38:05;;;;;;;0.52;0.32;;;17.90;54.20;;;;;;4994519;28;20614;-68
2022/01/08 05:40:30;;;;;;;0.60;0.47;;;17.90;54.20;;;;;;4994591;28;20042;-68
2022/01/08 05:42:56;;;;;;;1.13;0.50;;;17.90;54.10;;;;;;5005999;28;20642;-68
2022/01/08 05:45:21;;;;;;;1.00;0.60;;;17.90;54.00;;;;;;4998520;28;20034;-68
2022/01/08 05:47:47;;;;;;;0.50;0.40;;;17.90;53.90;;;;;;5006151;28;20034;-69
2022/01/08 05:50:12;;;;;;;0.60;0.30;;;17.90;53.90;;;;;;5003019;28;20409;-68
2022/01/08 05:52:38;;;;;;;0.68;0.50;;;17.90;53.90;;;;;;4990561;28;20033;-67
2022/01/08 05:55:04;;;;;;;0.75;0.50;;;17.90;53.80;;;;;;5000249;28;20540;-68
2022/01/08 05:57:29;;;;;;;0.50;0.45;;;17.90;53.80;;;;;;4990607;28;20051;-69
2022/01/08 05:59:54;;;;;;;0.50;0.50;;;17.90;53.70;;;;;;5006982;28;20041;-68
2022/01/08 06:02:20;;;;;;;0.55;0.50;;;17.90;53.70;;;;;;5000040;28;20043;-68
2022/01/08 06:04:46;;;;;;;0.57;0.40;;;17.90;53.70;;;;;;4998541;28;20046;-68
2022/01/08 06:07:11;;;;;;;0.70;0.40;;;17.90;53.60;;;;;;4998769;28;20027;-68
2022/01/08 06:09:36;;;;;;;0.73;0.50;;;17.90;53.60;;;;;;4996813;28;20025;-68
2022/01/08 06:12:02;;;;;;;0.63;0.45;;;17.90;53.60;;;;;;5001609;28;20022;-68
2022/01/08 06:14:28;;;;;;;0.95;0.85;;;17.90;53.70;;;;;;4994393;28;20397;-67
2022/01/08 06:16:53;;;;;;;0.88;0.50;;;17.90;53.70;;;;;;5000586;28;20109;-68
2022/01/08 06:19:19;;;;;;;0.88;0.60;;;17.90;53.60;;;;;;4995730;28;20030;-63
2022/01/08 06:21:44;;;;;;;0.52;0.40;;;17.90;53.50;;;;;;5000307;28;20583;-64
2022/01/08 06:24:10;;;;;;;1.20;0.50;;;17.90;53.50;;;;;;5000143;28;20575;-62
2022/01/08 06:26:35;;;;;;;0.93;0.30;;;17.90;53.50;;;;;;4996116;28;20496;-69
2022/01/08 06:29:01;;;;;;;0.60;0.40;;;17.90;53.50;;;;;;4995952;28;20033;-62
2022/01/08 06:31:27;;;;;;;1.65;0.45;;;17.90;53.40;;;;;;4997253;28;20112;-64
2022/01/08 06:33:52;;;;;;;1.05;0.55;;;17.80;53.40;;;;;;5004631;28;20030;-67
2022/01/08 06:36:19;;;;;;;0.55;0.40;;;17.80;53.30;;;;;;5008130;28;20111;-65
2022/01/08 06:38:47;;;;;;;0.32;0.30;;;17.80;53.40;;;;;;4996435;28;20520;-67
2022/01/08 06:41:13;;;;;;;0.88;0.40;;;17.90;53.40;;;;;;4995323;28;20040;-67
2022/01/08 06:43:38;;;;;;;1.15;0.35;;;17.80;53.40;;;;;;4994788;28;20400;-67
2022/01/08 06:46:05;;;;;;;0.52;0.52;;;17.80;53.50;;;;;;4999676;28;20046;-67
2022/01/08 06:48:30;;;;;;;0.68;0.60;;;17.80;53.40;;;;;;4993462;28;20019;-63
2022/01/08 06:50:56;;;;;;;0.60;0.30;;;17.80;53.50;;;;;;4989741;28;20053;-68
2022/01/08 06:53:21;;;;;;;2.30;0.45;;;17.80;53.50;;;;;;5008896;28;20037;-63
2022/01/08 06:55:47;;;;;;;0.50;0.40;;;17.80;53.50;;;;;;4993176;28;20030;-64
2022/01/08 06:58:12;;;;;;;0.60;0.50;;;17.80;53.50;;;;;;4988809;28;21373;-67
2022/01/08 07:00:38;;;;;;;0.70;0.52;;;17.80;53.50;;;;;;4987711;28;20603;-68
2022/01/08 07:03:05;;;;;;;1.13;0.45;;;17.80;53.50;;;;;;4993778;28;20026;-63
2022/01/08 07:05:31;;;;;;;2.70;0.60;;;17.80;53.60;;;;;;4993002;28;20046;-62
2022/01/08 07:07:56;;;;;;;0.60;0.40;;;17.80;53.60;;;;;;5008715;28;20737;-69
2022/01/08 07:10:22;;;;;;;1.20;0.60;;;17.80;53.60;;;;;;4987953;28;20078;-67
2022/01/08 07:12:47;;;;;;;0.30;0.30;;;17.80;53.70;;;;;;4994306;28;20092;-63
2022/01/08 07:15:13;;;;;;;0.70;0.60;;;17.70;53.60;;;;;;4989758;28;20029;-64
2022/01/08 07:17:39;;;;;;;0.85;0.47;;;17.70;53.60;;;;;;4994084;28;20031;-66
2022/01/08 07:20:05;;;;;;;1.45;0.50;;;17.80;53.70;;;;;;5004869;28;20030;-71
2022/01/08 07:22:31;;;;;;;1.13;0.40;;;17.70;53.70;;;;;;4990939;28;20117;-71
2022/01/08 07:24:56;;;;;;;0.65;0.40;;;17.80;53.80;;;;;;4995110;28;20117;-66
2022/01/08 07:27:22;;;;;;;0.80;0.40;;;17.80;53.80;;;;;;4991444;28;20034;-70
2022/01/08 07:29:47;;;;;;;1.30;0.70;;;17.70;53.80;;;;;;5003174;28;20057;-68
2022/01/08 07:32:13;;;;;;;1.75;0.30;;;17.80;53.90;;;;;;4994956;28;20036;-63
2022/01/08 07:34:38;;;;;;;0.57;0.50;;;17.70;53.90;;;;;;5000840;28;20030;-70
2022/01/08 07:37:04;;;;;;;3.80;0.70;;;17.70;53.90;;;;;;4995483;28;20409;-70
2022/01/08 07:39:29;;;;;;;0.40;0.40;;;17.70;54.00;;;;;;4998154;28;20037;-71
2022/01/08 07:41:55;;;;;;;1.52;0.40;;;17.70;54.00;;;;;;4988848;28;20030;-69
2022/01/08 07:44:20;;;;;;;0.40;0.40;;;17.70;54.00;;;;;;4990318;28;20452;-68
2022/01/08 07:46:46;;;;;;;0.65;0.50;;;17.70;54.10;;;;;;4998659;28;20042;-70
2022/01/08 07:49:11;;;;;;;0.60;0.40;;;17.70;54.20;;;;;;4990468;28;20026;-70
2022/01/08 07:51:36;;;;;;;2.10;1.10;;;17.70;54.30;;;;;;4995150;28;20045;-70
2022/01/08 07:54:02;;;;;;;0.95;0.70;;;17.70;54.70;;;;;;5010211;28;20129;-69
2022/01/08 07:56:27;;;;;;;4.88;0.98;;;17.70;54.90;;;;;;5002784;28;20026;-70
2022/01/08 07:58:53;;;;;;;3.53;0.93;;;17.70;55.00;;;;;;5000260;28;20337;-71
2022/01/08 08:01:19;;;;;;;3.08;0.80;;;17.70;55.00;;;;;;5003305;28;20025;-70
2022/01/08 08:03:44;;;;;;;4.43;0.90;;;17.70;54.90;;;;;;5001627;28;20026;-70
2022/01/08 08:06:10;;;;;;;3.45;0.80;;;17.70;54.80;;;;;;4989648;28;20026;-71
2022/01/08 08:08:36;;;;;;;2.72;0.85;;;17.70;54.60;;;;;;5009506;28;20033;-70
2022/01/08 08:11:01;;;;;;;2.05;1.00;;;17.70;54.30;;;;;;5003442;28;20661;-71
2022/01/08 08:13:27;;;;;;;4.38;1.08;;;17.70;54.10;;;;;;5001688;28;20054;-71
2022/01/08 08:15:52;;;;;;;2.92;0.95;;;17.70;54.30;;;;;;5007876;28;20094;-71
2022/01/08 08:18:18;;;;;;;0.93;0.50;;;17.70;54.30;;;;;;5002052;28;20058;-71
2022/01/08 08:20:43;;;;;;;4.47;0.93;;;17.70;54.40;;;;;;5012878;28;20560;-71
2022/01/08 08:23:09;;;;;;;1.80;0.80;;;17.70;54.40;;;;;;5003628;28;20023;-71
2022/01/08 08:25:34;;;;;;;2.33;0.80;;;17.70;54.80;;;;;;4991318;28;20121;-69
2022/01/08 08:28:00;;;;;;;5.05;1.10;;;17.60;54.70;;;;;;5003637;28;20736;-70
2022/01/08 08:30:26;;;;;;;3.70;1.20;;;17.60;54.90;;;;;;5005870;28;20034;-69
2022/01/08 08:32:52;;;;;;;4.03;1.05;;;17.60;55.10;;;;;;4995329;28;20457;-69
2022/01/08 08:35:17;;;;;;;5.03;1.10;;;17.60;55.20;;;;;;5001945;28;20029;-70
2022/01/08 08:37:43;;;;;;;5.88;1.02;;;17.60;55.30;;;;;;4988716;28;20076;-71
2022/01/08 08:40:10;;;;;;;3.58;1.85;;;17.60;55.40;;;;;;4999969;28;20498;-70
2022/01/08 08:42:36;;;;;;;5.95;0.90;;;17.60;55.50;;;;;;4975500;28;20030;-70
2022/01/08 08:45:02;;;;;;;6.00;0.82;;;17.50;55.50;;;;;;4997982;28;20091;-68
2022/01/08 08:47:28;;;;;;;3.38;1.02;;;17.50;55.50;;;;;;4996786;28;20034;-69
2022/01/08 08:49:53;;;;;;;4.32;0.88;;;17.50;55.60;;;;;;4996826;28;20041;-70
2022/01/08 08:52:19;;;;;;;4.22;2.22;;;17.50;55.50;;;;;;4992132;28;20038;-70
2022/01/08 08:54:44;;;;;;;2.03;1.05;;;17.50;55.50;;;;;;5005890;28;20738;-71
2022/01/08 08:57:10;;;;;;;5.68;2.53;;;17.50;55.50;;;;;;4997212;28;20041;-73
2022/01/08 08:59:36;;;;;;;3.22;1.20;;;17.50;55.40;;;;;;4993407;28;20061;-71
2022/01/08 09:02:01;;;;;;;2.63;1.10;;;17.40;55.30;;;;;;4994591;28;20072;-71
2022/01/08 09:04:27;;;;;;;4.55;1.33;;;17.40;55.30;;;;;;5009762;28;20061;-70
2022/01/08 09:06:52;;;;;;;5.32;1.10;;;17.40;55.30;;;;;;5002993;28;20385;-70
2022/01/08 09:09:18;;;;;;;4.50;1.20;;;17.40;55.30;;;;;;4996428;28;20029;-73
2022/01/08 09:11:43;;;;;;;1.77;1.20;;;17.40;55.50;;;;;;4981341;28;20066;-70
2022/01/08 09:14:09;;;;;;;4.78;1.10;;;17.50;55.50;;;;;;4965352;28;20030;-73
2022/01/08 09:16:35;;;;;;;2.47;1.13;;;17.40;55.50;;;;;;4984541;28;20453;-69
2022/01/08 09:19:00;;;;;;;4.22;1.48;;;17.40;55.60;;;;;;4999294;28;20056;-68
2022/01/08 09:21:26;;;;;;;3.15;1.42;;;17.40;55.50;;;;;;4987600;28;20041;-72
2022/01/08 09:23:51;;;;;;;3.33;1.05;;;17.40;55.40;;;;;;4995554;28;20114;-68
2022/01/08 09:26:17;;;;;;;2.17;0.93;;;17.40;55.30;;;;;;4998301;28;20030;-70
2022/01/08 09:28:42;;;;;;;4.78;1.27;;;17.50;55.20;;;;;;4998139;28;20030;-74
2022/01/08 09:31:08;;;;;;;4.13;1.40;;;17.50;55.00;;;;;;4986584;28;20037;-70
2022/01/08 09:33:33;;;;;;;2.00;1.00;;;17.60;54.90;;;;;;4988370;28;20022;-72
2022/01/08 09:35:59;;;;;;;2.65;1.38;;;17.60;54.90;;;;;;4998129;28;20173;-70
2022/01/08 09:38:24;;;;;;;2.85;1.02;;;17.60;54.70;;;;;;4989751;28;20714;-70
2022/01/08 09:40:50;;;;;;;3.08;1.27;;;17.60;54.60;;;;;;5007476;28;20060;-72
2022/01/08 09:43:16;;;;;;;6.07;1.23;;;17.70;54.60;;;;;;5000028;28;20081;-71
2022/01/08 09:45:42;;;;;;;6.15;1.70;;;17.70;54.90;;;;;;5002202;28;20038;-70
2022/01/08 09:48:07;;;;;;;4.00;1.10;;;17.70;55.00;;;;;;4981071;28;20026;-70
2022/01/08 09:50:33;;;;;;;5.63;1.40;;;17.70;55.10;;;;;;5005407;28;20404;-69
2022/01/08 09:52:58;;;;;;;3.55;1.20;;;17.70;55.00;;;;;;4995846;28;20113;-70
2022/01/08 09:55:26;;;;;;;8.35;1.02;;;17.80;55.00;;;;;;4995141;28;20038;-70
2022/01/08 09:57:52;;;;;;;5.80;1.10;;;17.80;55.00;;;;;;5003818;28;20084;-70
2022/01/08 10:00:18;;;;;;;3.47;1.10;;;17.80;55.00;;;;;;4996986;28;20022;-72
2022/01/08 10:02:44;;;;;;;2.45;1.15;;;17.80;54.80;;;;;;4982068;28;20036;-72
2022/01/08 10:05:11;;;;;;;2.47;1.40;;;17.80;54.70;;;;;;5003067;28;20100;-72
2022/01/08 10:07:37;;;;;;;4.63;1.05;;;17.80;54.80;;;;;;4980882;28;20042;-72
2022/01/08 10:10:12;;;;;;;1.13;0.95;;;17.80;55.00;;;;;;4984438;28;20052;-71
2022/01/08 10:12:39;;;;;;;;;;;17.80;55.00;;;;;;4984657;28;20033;-70
2022/01/08 10:17:49;;;;;;;7.20;1.25;;;17.80;55.20;;;;;;4982123;28;20134;-69
2022/01/08 10:20:50;;;;;;;3.10;1.20;;;17.80;55.40;;;;;;4973351;28;20043;-69
2022/01/08 10:23:21;;;;;;;3.80;1.30;;;17.70;55.40;;;;;;4965316;28;20023;-69
2022/01/08 10:25:56;;;;;;;5.47;1.50;;;17.80;55.40;;;;;;4990830;28;20044;-70
2022/01/08 10:28:40;;;;;;;3.10;0.90;;;17.80;55.50;;;;;;4985976;28;20030;-68
2022/01/08 10:31:11;;;;;;;2.55;1.00;;;17.80;55.50;;;;;;4997766;28;20044;-69
2022/01/08 10:33:36;;;;;;;5.68;1.20;;;17.80;55.70;;;;;;4979158;28;20042;-70
2022/01/08 10:36:02;;;;;;;5.38;1.35;;;17.80;55.60;;;;;;4987753;28;20022;-69
2022/01/08 10:38:28;;;;;;;5.35;1.10;;;17.80;55.70;;;;;;4998273;28;20380;-68
2022/01/08 10:40:53;;;;;;;5.93;1.08;;;17.80;55.80;;;;;;4995211;28;22123;-71
2022/01/08 10:43:26;;;;;;;4.55;1.10;;;17.80;55.70;;;;;;4999738;28;20033;-72
2022/01/08 10:45:56;;;;;;;5.28;1.10;;;17.80;55.80;;;;;;4997013;28;20513;-70
2022/01/08 10:48:29;;;;;;;4.07;1.13;;;17.80;55.80;;;;;;5000107;28;20696;-71
2022/01/08 10:51:14;;;;;;;6.38;1.15;;;17.80;55.90;;;;;;5004241;28;20038;-70
2022/01/08 10:54:05;;;;;;;6.60;1.10;;;17.90;56.00;;;;;;4998419;28;20095;-71
2022/01/08 10:56:31;;;;;;;1.98;1.00;;;17.80;56.00;;;;;;4996386;28;20264;-70
2022/01/08 10:59:03;;;;;;;4.50;0.95;;;17.80;55.90;;;;;;4988039;28;20103;-72
2022/01/08 11:01:41;;;;;;;5.35;1.30;;;17.90;56.00;;;;;;4987829;28;20034;-72
2022/01/08 11:04:08;;;;;;;3.15;1.63;;;17.80;55.90;;;;;;4982553;28;20035;-72
2022/01/08 11:06:33;;;;;;;2.10;1.15;;;17.80;55.70;;;;;;4995606;28;20049;-72
2022/01/08 11:09:00;;;;;;;6.38;1.38;;;17.80;55.70;;;;;;4990736;28;20026;-72
2022/01/08 11:11:29;;;;;;;2.45;1.00;;;17.80;55.60;;;;;;4992935;28;20126;-71
2022/01/08 11:13:58;;;;;;;3.05;1.20;;;17.80;55.50;;;;;;4986528;28;20033;-73
2022/01/08 11:16:24;;;;;;;2.67;1.13;;;17.80;55.50;;;;;;5007618;28;20104;-74
2022/01/08 11:18:49;;;;;;;11.95;1.30;;;17.90;55.30;;;;;;4984357;28;20030;-71
2022/01/08 11:21:15;;;;;;;4.78;1.40;;;17.90;55.30;;;;;;4992634;28;20014;-72
2022/01/08 11:23:40;;;;;;;7.18;1.75;;;17.90;55.20;;;;;;4992489;28;20023;-70
2022/01/08 11:26:08;;;;;;;4.82;1.27;;;18.00;55.30;;;;;;4976021;28;20482;-70
2022/01/08 11:28:34;;;;;;;2.30;1.20;;;18.00;55.50;;;;;;4988140;28;20200;-71
2022/01/08 11:31:00;;;;;;;3.55;1.20;;;17.90;55.50;;;;;;4996686;28;20018;-69
2022/01/08 11:33:30;;;;;;;3.90;1.05;;;17.90;55.60;;;;;;4995501;28;20025;-73
2022/01/08 11:35:56;;;;;;;4.13;1.58;;;17.90;55.60;;;;;;4994444;28;20026;-69
2022/01/08 11:38:22;;;;;;;2.40;1.33;;;17.90;55.70;;;;;;5002568;28;20474;-70
2022/01/08 11:40:49;;;;;;;2.05;1.00;;;17.90;55.60;;;;;;4996182;28;20038;-69
2022/01/08 11:43:17;;;;;;;5.95;1.20;;;17.80;55.60;;;;;;4984741;28;20030;-69
2022/01/08 11:45:47;;;;;;;4.22;1.30;;;17.80;55.60;;;;;;4992806;28;20034;-68
2022/01/08 11:48:13;;;;;;;2.63;1.20;;;17.80;55.50;;;;;;4990755;28;20576;-71
2022/01/08 11:50:38;;;;;;;6.38;2.78;;;17.80;55.40;;;;;;4995482;28;20172;-71
2022/01/08 11:53:18;;;;;;;8.20;3.55;;;17.80;55.20;;;;;;4992417;28;20037;-70
2022/01/08 11:55:50;;;;;;;38.15;16.85;;;17.80;55.40;;;;;;4980773;28;20042;-69
2022/01/08 11:58:23;;;;;;;29.27;14.55;;;17.80;56.30;;;;;;4997876;28;20121;-68
2022/01/08 12:00:50;;;;;;;31.73;13.32;;;17.70;56.20;;;;;;4975600;28;20076;-70
2022/01/08 12:03:39;;;;;;;31.15;13.88;;;17.80;56.20;;;;;;5000606;28;20031;-69
2022/01/08 12:06:29;;;;;;;30.65;13.80;;;17.70;56.10;;;;;;4998507;28;20054;-69
2022/01/08 12:09:29;;;;;;;32.83;13.85;;;17.70;56.00;;;;;;4987964;28;20035;-70
2022/01/08 12:11:57;;;;;;;29.85;13.70;;;17.60;56.00;;;;;;4991560;28;20041;-70
2022/01/08 12:14:24;;;;;;;33.17;13.75;;;17.60;56.00;;;;;;4999834;28;20031;-70
2022/01/08 12:16:54;;;;;;;30.48;13.70;;;17.60;55.90;;;;;;5004933;28;20030;-69
2022/01/08 12:19:33;;;;;;;29.13;13.73;;;17.60;55.80;;;;;;4990014;28;20060;-69
2022/01/08 12:22:00;;;;;;;61.35;27.88;;;17.60;55.90;;;;;;4994708;28;20046;-68
2022/01/08 12:24:28;;;;;;;71.93;33.75;;;17.60;57.70;;;;;;4985350;28;20114;-69
2022/01/08 12:26:54;;;;;;;76.43;34.67;;;17.60;58.40;;;;;;4996983;28;20058;-69
2022/01/08 12:29:39;;;;;;;75.53;34.10;;;17.70;58.50;;;;;;4993568;28;20026;-68
2022/01/08 12:32:29;;;;;;;59.97;30.77;;;17.60;58.60;;;;;;4985320;28;20030;-70
2022/01/08 12:35:02;;;;;;;55.95;28.02;;;17.60;58.40;;;;;;4986421;28;20031;-65
2022/01/08 12:37:38;;;;;;;57.88;26.92;;;17.60;58.40;;;;;;4992250;28;20069;-68
2022/01/08 12:40:04;;;;;;;51.65;26.48;;;17.60;58.40;;;;;;4984978;28;20034;-69
2022/01/08 12:42:29;;;;;;;56.63;24.50;;;17.50;58.60;;;;;;4993549;28;20076;-68
2022/01/08 12:45:07;;;;;;;48.08;22.45;;;17.50;58.60;;;;;;4983531;28;20314;-70
2022/01/08 12:48:00;;;;;;;46.55;20.92;;;17.50;58.70;;;;;;4989473;28;20121;-64
2022/01/08 12:50:36;;;;;;;44.50;20.02;;;17.50;58.80;;;;;;4975734;28;20046;-65
2022/01/08 12:53:08;;;;;;;43.50;19.40;;;17.50;58.80;;;;;;4992826;28;20061;-69
2022/01/08 12:55:44;;;;;;;40.45;17.20;;;17.40;58.80;;;;;;4999476;28;20445;-69
2022/01/08 12:58:23;;;;;;;38.13;18.73;;;17.40;58.80;;;;;;4987030;28;20037;-65
2022/01/08 13:00:57;;;;;;;42.45;17.15;;;17.40;58.80;;;;;;4986675;28;22094;-69
2022/01/08 13:03:27;;;;;;;32.92;16.63;;;17.30;58.80;;;;;;4991864;28;20033;-68
2022/01/08 13:05:52;;;;;;;33.45;15.98;;;17.30;58.70;;;;;;4981386;28;20041;-69
2022/01/08 13:08:25;;;;;;;29.10;14.85;;;17.30;58.80;;;;;;5006819;28;20026;-66